createdAt,value
2019-04-23T00:02:44.641Z,9.50
2019-04-23T00:05:02.066Z,9.83
2019-04-23T00:07:46.229Z,10.93
2019-04-23T00:10:12.277Z,11.07
2019-04-23T00:12:44.186Z,11.27
2019-04-23T00:15:10.577Z,10.17
2019-04-23T00:17:48.128Z,10.70
2019-04-23T00:20:14.704Z,10.80
2019-04-23T00:23:02.446Z,11.33
2019-04-23T00:28:16.125Z,10.40
2019-04-23T00:33:20.188Z,10.37
2019-04-23T00:35:48.621Z,9.40
2019-04-23T00:38:28.343Z,10.27
2019-04-23T00:40:51.350Z,10.10
2019-04-23T00:43:21.825Z,10.47
2019-04-23T00:46:06.293Z,11.47
2019-04-23T00:48:36.365Z,10.33
2019-04-23T00:51:09.183Z,11.60
2019-04-23T00:53:26.696Z,10.20
2019-04-23T00:56:11.605Z,11.07
2019-04-23T01:01:30.103Z,10.63
2019-04-23T01:03:40.807Z,10.30
2019-04-23T01:06:16.018Z,10.90
2019-04-23T01:08:44.143Z,11.33
2019-04-23T01:11:19.869Z,11.20
2019-04-23T01:13:48.957Z,10.70
2019-04-23T01:16:22.717Z,10.67
2019-04-23T01:21:22.378Z,11.40
2019-04-23T01:24:06.410Z,11.33
2019-04-23T01:27:32.527Z,11.10
2019-04-23T01:29:50.667Z,10.90
2019-04-23T01:32:20.790Z,10.83
2019-04-23T01:35:06.957Z,12.63
2019-04-23T01:37:26.863Z,11.43
2019-04-23T01:39:57.797Z,11.00
2019-04-23T01:42:37.339Z,11.63
2019-04-23T01:45:07.331Z,12.18
2019-04-23T01:47:42.055Z,10.97
2019-04-23T01:50:13.941Z,11.07
2019-04-23T01:52:45.640Z,10.77
2019-04-23T01:55:17.072Z,13.27
2019-04-23T01:57:57.798Z,10.60
2019-04-23T02:00:22.462Z,11.50
2019-04-23T02:02:56.958Z,10.87
2019-04-23T02:07:56.620Z,11.50
2019-04-23T02:13:01.901Z,11.60
2019-04-23T02:15:38.068Z,12.13
2019-04-23T02:18:13.633Z,11.40
2019-04-23T02:20:43.867Z,11.17
2019-04-23T02:28:25.735Z,12.10
2019-04-23T02:33:43.699Z,10.57
2019-04-23T02:38:45.221Z,11.40
2019-04-23T02:43:35.522Z,11.53
2019-04-23T02:46:28.777Z,11.57
2019-04-23T02:48:54.384Z,11.13
2019-04-23T02:51:26.841Z,10.50
2019-04-23T02:56:49.257Z,10.97
2019-04-23T02:59:14.475Z,12.27
2019-04-23T03:04:10.040Z,10.47
2019-04-23T03:06:43.359Z,11.70
2019-04-23T03:09:12.767Z,11.00
2019-04-23T03:12:18.488Z,10.50
2019-04-23T03:14:20.734Z,11.10
2019-04-23T03:17:02.671Z,12.00
2019-04-23T03:19:47.970Z,11.17
2019-04-23T03:22:19.094Z,11.23
2019-04-23T03:27:50.187Z,11.10
2019-04-23T03:38:10.560Z,11.70
2019-04-23T03:40:37.066Z,10.90
2019-04-23T03:53:32.746Z,11.47
2019-04-23T03:56:05.708Z,11.20
2019-04-23T03:58:28.580Z,10.72
2019-04-23T04:01:07.387Z,11.03
2019-04-23T04:04:12.427Z,10.50
2019-04-23T04:06:05.362Z,10.60
2019-04-23T04:08:36.097Z,10.80
2019-04-23T04:11:19.202Z,10.00
2019-04-23T04:13:51.333Z,10.60
2019-04-23T04:16:28.967Z,10.40
2019-04-23T04:18:57.254Z,10.60
2019-04-23T04:21:24.587Z,10.60
2019-04-23T04:24:05.119Z,10.48
2019-04-23T04:29:10.842Z,9.95
2019-04-23T04:31:43.002Z,11.03
2019-04-23T04:34:10.714Z,10.25
2019-04-23T04:36:44.647Z,11.30
2019-04-23T04:38:59.043Z,10.60
2019-04-23T04:41:40.647Z,10.20
2019-04-23T04:44:33.384Z,11.20
2019-04-23T04:46:45.955Z,11.05
2019-04-23T04:54:21.200Z,11.80
2019-04-23T04:56:51.323Z,10.95
2019-04-23T04:59:22.893Z,11.22
2019-04-23T05:04:39.118Z,10.75
2019-04-23T05:07:26.042Z,11.48
2019-04-23T05:09:48.423Z,11.00
2019-04-23T05:12:14.368Z,10.40
2019-04-23T05:14:43.997Z,11.15
2019-04-23T05:17:23.757Z,11.20
2019-04-23T05:19:51.240Z,11.30
2019-04-23T05:22:26.769Z,9.93
2019-04-23T05:24:51.290Z,11.37
2019-04-23T05:27:34.556Z,10.53
2019-04-23T05:30:00.928Z,10.10
2019-04-23T05:32:32.821Z,10.73
2019-04-23T05:35:04.731Z,9.80
2019-04-23T05:37:50.569Z,9.50
2019-04-23T05:40:20.146Z,9.83
2019-04-23T05:45:15.861Z,9.77
2019-04-23T05:47:50.865Z,10.63
2019-04-23T05:50:30.490Z,10.20
2019-04-23T05:52:52.839Z,9.73
2019-04-23T05:55:25.102Z,10.60
2019-04-23T05:58:16.926Z,9.60
2019-04-23T06:00:32.370Z,11.60
2019-04-23T06:03:04.856Z,10.30
2019-04-23T06:05:41.421Z,10.47
2019-04-23T06:08:12.063Z,10.73
2019-04-23T06:10:40.628Z,9.30
2019-04-23T06:13:12.313Z,10.80
2019-04-23T06:15:48.761Z,10.40
2019-04-23T06:18:25.011Z,9.87
2019-04-23T06:20:55.879Z,9.77
2019-04-23T06:23:30.406Z,10.10
2019-04-23T06:28:30.359Z,9.87
2019-04-23T06:31:02.288Z,9.77
2019-04-23T06:36:15.557Z,9.47
2019-04-23T06:41:15.551Z,10.10
2019-04-23T06:44:09.173Z,10.73
2019-04-23T06:46:40.102Z,10.57
2019-04-23T06:49:06.351Z,9.30
2019-04-23T06:51:49.162Z,10.43
2019-04-23T06:54:12.378Z,8.93
2019-04-23T06:56:54.364Z,9.50
2019-04-23T06:59:12.987Z,11.03
2019-04-23T07:01:53.086Z,10.50
2019-04-23T07:04:17.948Z,10.20
2019-04-23T07:06:57.403Z,9.67
2019-04-23T07:09:15.237Z,9.37
2019-04-23T07:11:51.740Z,9.70
2019-04-23T07:14:32.464Z,9.83
2019-04-23T07:16:58.918Z,9.50
2019-04-23T07:24:32.898Z,9.40
2019-04-23T07:27:10.307Z,9.27
2019-04-23T07:29:39.203Z,9.27
2019-04-23T07:32:10.822Z,9.03
2019-04-23T07:34:49.831Z,9.90
2019-04-23T07:37:19.039Z,8.77
2019-04-23T07:40:27.524Z,9.03
2019-04-23T07:42:51.196Z,8.50
2019-04-23T07:45:39.942Z,8.87
2019-04-23T07:48:13.158Z,8.83
2019-04-23T07:53:17.253Z,9.07
2019-04-23T07:55:56.425Z,9.07
2019-04-23T08:03:43.507Z,8.20
2019-04-23T08:05:55.610Z,8.27
2019-04-23T08:08:30.335Z,9.20
2019-04-23T08:11:34.796Z,8.70
2019-04-23T08:13:55.559Z,8.60
2019-04-23T08:16:29.384Z,9.23
2019-04-23T08:24:08.771Z,8.87
2019-04-23T08:29:19.882Z,9.63
2019-04-23T08:34:51.714Z,8.73
2019-04-23T08:37:35.592Z,9.40
2019-04-23T08:40:02.235Z,8.40
2019-04-23T08:43:08.980Z,8.97
2019-04-23T08:45:46.382Z,8.53
2019-04-23T08:48:41.798Z,8.53
2019-04-23T08:51:19.549Z,8.33
2019-04-23T08:53:48.081Z,8.93
2019-04-23T08:56:02.019Z,8.07
2019-04-23T08:58:35.289Z,8.23
2019-04-23T09:01:09.576Z,9.10
2019-04-23T09:03:39.641Z,8.37
2019-04-23T09:06:20.395Z,8.40
2019-04-23T09:08:49.539Z,8.50
2019-04-23T09:12:33.893Z,8.70
2019-04-23T09:13:55.745Z,9.03
2019-04-23T09:16:44.766Z,8.27
2019-04-23T09:23:54.050Z,9.40
2019-04-23T09:51:45.150Z,10.37
2019-04-23T09:55:04.709Z,9.73
2019-04-23T10:05:29.174Z,8.73
2019-04-23T10:12:55.629Z,9.13
2019-04-23T10:16:47.627Z,9.20
2019-04-23T10:19:26.711Z,9.50
2019-04-23T10:26:50.372Z,8.67
2019-04-23T10:29:34.262Z,8.53
2019-04-23T10:32:29.824Z,8.90
2019-04-23T11:33:37.911Z,8.43
2019-04-23T11:36:41.151Z,8.93
2019-04-23T11:38:56.119Z,9.27
2019-04-23T11:41:26.421Z,8.60
2019-04-23T11:44:16.726Z,8.80
2019-04-23T11:49:20.324Z,10.03
2019-04-23T11:54:10.804Z,8.93
2019-04-23T11:57:14.596Z,8.87
2019-04-23T11:59:25.879Z,8.53
2019-04-23T12:01:56.315Z,9.77
2019-04-23T12:05:01.081Z,9.90
2019-04-23T12:07:41.282Z,8.60
2019-04-23T12:13:03.345Z,8.70
2019-04-23T12:15:40.351Z,8.53
2019-04-23T12:18:20.062Z,8.77
2019-04-23T12:21:05.985Z,8.83
2019-04-23T12:23:31.892Z,8.23
2019-04-23T12:26:04.540Z,9.10
2019-04-23T12:30:57.193Z,8.83
2019-04-23T12:33:50.508Z,9.27
2019-04-23T12:36:39.517Z,7.80
2019-04-23T12:39:13.832Z,7.80
2019-04-23T12:41:45.588Z,9.07
2019-04-23T12:44:36.555Z,8.37
2019-04-23T12:46:48.728Z,8.20
2019-04-23T12:49:53.349Z,8.03
2019-04-23T12:52:04.605Z,8.60
2019-04-23T12:54:55.993Z,9.17
2019-04-23T13:00:00.364Z,8.90
2019-04-23T13:02:38.927Z,9.00
2019-04-23T13:05:05.486Z,8.90
2019-04-23T13:07:40.034Z,9.37
2019-04-23T13:10:11.908Z,8.60
2019-04-23T13:12:50.333Z,9.10
2019-04-23T13:15:18.774Z,8.50
2019-04-23T13:20:24.793Z,8.67
2019-04-23T13:25:48.081Z,9.17
2019-04-23T13:28:35.738Z,9.57
2019-04-23T13:33:35.167Z,8.00
2019-04-23T13:38:38.877Z,7.83
2019-04-23T13:41:17.284Z,9.60
2019-04-23T13:46:14.064Z,8.80
2019-04-23T13:48:42.073Z,9.63
2019-04-23T13:53:53.424Z,9.40
2019-04-23T13:57:14.411Z,9.07
2019-04-23T14:01:39.835Z,10.00
2019-04-23T14:04:38.293Z,10.20
2019-04-23T14:07:05.236Z,9.20
2019-04-23T14:10:07.213Z,9.37
2019-04-23T14:12:26.079Z,9.40
2019-04-23T14:17:46.709Z,9.37
2019-04-23T14:23:03.251Z,9.90
2019-04-23T14:25:22.344Z,10.07
2019-04-23T14:28:07.414Z,11.33
2019-04-23T14:30:38.407Z,9.80
2019-04-23T14:33:17.607Z,10.10
2019-04-23T14:44:05.787Z,9.60
2019-04-23T14:54:06.233Z,11.00
2019-04-23T14:57:03.205Z,11.57
2019-04-23T15:10:26.346Z,9.57
2019-04-23T15:15:12.638Z,11.00
2019-04-23T15:17:41.267Z,10.70
2019-04-23T15:23:14.266Z,10.30
2019-04-23T15:25:53.163Z,10.90
2019-04-23T15:30:25.006Z,11.50
2019-04-23T15:33:13.330Z,10.50
2019-04-23T15:36:03.898Z,11.40
2019-04-23T15:38:26.759Z,12.13
2019-04-23T15:40:41.734Z,12.03
2019-04-23T15:45:53.846Z,12.40
2019-04-23T15:48:26.332Z,11.87
2019-04-23T15:50:56.047Z,11.93
2019-04-23T15:53:18.096Z,12.53
2019-04-23T15:55:59.729Z,11.87
2019-04-23T15:58:37.209Z,11.90
2019-04-23T16:03:24.340Z,12.00
2019-04-23T16:05:55.175Z,11.83
2019-04-23T16:11:45.216Z,12.30
2019-04-23T16:14:19.219Z,13.00
2019-04-23T16:16:38.734Z,11.77
2019-04-23T16:22:30.352Z,12.40
2019-04-23T16:24:26.319Z,12.23
2019-04-23T16:27:09.309Z,12.83
2019-04-23T16:29:54.214Z,12.20
2019-04-23T16:35:45.475Z,11.07
2019-04-23T16:38:32.554Z,11.87
2019-04-23T16:40:57.304Z,12.00
2019-04-23T16:43:33.802Z,12.30
2019-04-23T16:46:24.018Z,12.87
2019-04-23T16:49:22.035Z,12.90
2019-04-23T16:52:32.666Z,13.10
2019-04-23T16:55:29.169Z,12.77
2019-04-23T16:58:19.193Z,13.07
2019-04-23T17:01:34.465Z,13.00
2019-04-23T17:04:05.005Z,12.37
2019-04-23T17:06:46.597Z,11.90
2019-04-23T17:10:11.518Z,14.20
2019-04-23T17:13:04.872Z,13.20
2019-04-23T17:16:12.168Z,13.30
2019-04-23T17:18:48.935Z,14.00
2019-04-23T17:21:11.818Z,14.20
2019-04-23T17:24:14.615Z,12.87
2019-04-23T17:27:16.694Z,12.20
2019-04-23T17:30:52.290Z,14.20
2019-04-23T17:33:34.705Z,13.90
2019-04-23T17:40:04.434Z,13.60
2019-04-23T17:43:04.964Z,12.77
2019-04-23T17:45:54.794Z,12.70
2019-04-23T17:48:49.092Z,13.30
2019-04-23T17:51:26.609Z,12.87
2019-04-23T17:55:13.501Z,14.40
2019-04-23T18:02:16.464Z,14.23
2019-04-23T18:09:00.570Z,14.13
2019-04-23T18:15:55.420Z,15.63
2019-04-23T18:18:46.865Z,14.40
2019-04-23T18:25:30.787Z,16.03
2019-04-23T18:28:13.485Z,15.33
2019-04-23T18:31:06.169Z,14.80
2019-04-23T18:46:00.815Z,15.30
2019-04-23T18:49:23.230Z,14.90
2019-04-23T18:52:37.389Z,17.10
2019-04-23T19:06:01.206Z,14.80
2019-04-23T19:08:55.264Z,14.67
2019-04-23T19:15:01.733Z,15.37
2019-04-23T19:17:43.656Z,14.30
2019-04-23T19:20:02.091Z,14.67
2019-04-23T19:25:22.789Z,14.20
2019-04-23T19:28:09.180Z,15.00
2019-04-23T19:34:35.736Z,14.77
2019-04-23T19:36:58.705Z,14.27
2019-04-23T19:42:28.478Z,13.33
2019-04-23T19:44:51.812Z,14.80
2019-04-23T19:47:37.860Z,15.70
2019-04-23T19:50:04.138Z,16.23
2019-04-23T19:52:59.458Z,15.40
2019-04-23T19:55:40.348Z,15.77
2019-04-23T20:03:55.918Z,14.97
2019-04-23T20:06:42.089Z,15.00
2019-04-23T20:09:48.617Z,15.50
2019-04-23T20:17:23.165Z,15.60
2019-04-23T20:21:44.938Z,15.37
2019-04-23T20:26:29.074Z,14.93
2019-04-23T20:30:05.284Z,15.63
2019-04-23T20:35:24.356Z,15.50
2019-04-23T20:38:25.270Z,15.90
2019-04-23T20:41:14.817Z,16.73
2019-04-23T20:44:01.681Z,16.90
2019-04-23T20:46:42.677Z,15.60
2019-04-23T20:56:01.481Z,16.10
2019-04-23T20:59:01.389Z,16.70
2019-04-23T21:01:46.385Z,16.00
2019-04-23T21:04:47.721Z,16.33
2019-04-23T21:07:54.169Z,16.90
2019-04-23T21:10:33.930Z,17.00
2019-04-23T21:13:16.794Z,16.77
2019-04-23T21:15:55.969Z,17.00
2019-04-23T21:21:18.451Z,16.80
2019-04-23T21:24:14.673Z,17.30
2019-04-23T21:26:44.212Z,17.80
2019-04-23T21:29:15.264Z,17.17
2019-04-23T21:32:18.833Z,16.80
2019-04-23T21:34:44.917Z,17.67
2019-04-23T21:37:37.687Z,15.97
2019-04-23T21:44:00.563Z,17.03
2019-04-23T21:46:30.689Z,16.63
2019-04-23T21:49:29.580Z,17.30
2019-04-23T21:51:51.168Z,16.00
2019-04-23T21:54:14.949Z,17.00
2019-04-23T21:59:23.127Z,15.17
2019-04-23T22:02:10.803Z,15.80
2019-04-23T22:04:44.726Z,15.73
2019-04-23T22:07:16.744Z,17.20
2019-04-23T22:13:04.110Z,16.70
2019-04-23T22:15:43.173Z,15.23
2019-04-23T22:18:06.791Z,14.57
2019-04-23T22:20:51.377Z,16.10
2019-04-23T22:23:31.727Z,16.63
2019-04-23T22:28:57.979Z,16.43
2019-04-23T22:36:52.028Z,15.47
2019-04-23T22:39:26.917Z,14.67
2019-04-23T22:42:08.821Z,15.60
2019-04-23T22:44:56.135Z,13.30
2019-04-23T22:47:07.197Z,14.90
2019-04-23T22:50:09.540Z,14.87
2019-04-23T22:52:21.370Z,14.87
2019-04-23T22:55:02.162Z,14.83
2019-04-23T23:00:16.441Z,13.97
2019-04-23T23:06:10.972Z,13.23
2019-04-23T23:08:34.648Z,15.10
2019-04-23T23:11:07.184Z,14.07
2019-04-23T23:13:58.288Z,13.10
2019-04-23T23:16:28.353Z,13.57
2019-04-23T23:19:14.925Z,14.20
2019-04-23T23:21:58.167Z,13.90
2019-04-23T23:24:30.853Z,13.67
2019-04-23T23:27:05.476Z,13.20
2019-04-23T23:29:42.428Z,12.90
2019-04-23T23:32:14.944Z,13.00
2019-04-23T23:35:00.997Z,12.77
2019-04-23T23:37:15.657Z,13.33
2019-04-23T23:40:05.401Z,13.47
2019-04-23T23:45:38.657Z,13.40
2019-04-23T23:50:50.348Z,12.60
2019-04-23T23:53:24.930Z,13.00
2019-04-23T23:55:58.525Z,11.80
2019-04-23T23:58:42.526Z,12.80
